sensor_id;sensor_type;location;lat;lon;timestamp;P1;durP1;ratioP1;P2;durP2;ratioP2
8500;SDS011;4288;48.484;10.024;2023-06-26T00:02:19;6.63;;;5.30;;
8500;SDS011;4288;48.484;10.024;2023-06-26T00:04:46;7.73;;;5.03;;
8500;SDS011;4288;48.484;10.024;2023-06-26T00:07:15;10.13;;;6.70;;
8500;SDS011;4288;48.484;10.024;2023-06-26T00:09:42;11.50;;;6.40;;
8500;SDS011;4288;48.484;10.024;2023-06-26T00:12:09;8.60;;;6.40;;
8500;SDS011;4288;48.484;10.024;2023-06-26T00:14:37;7.13;;;5.13;;
8500;SDS011;4288;48.484;10.024;2023-06-26T00:17:04;10.17;;;5.67;;
8500;SDS011;4288;48.484;10.024;2023-06-26T00:19:32;11.27;;;6.33;;
8500;SDS011;4288;48.484;10.024;2023-06-26T00:21:59;10.57;;;6.43;;
8500;SDS011;4288;48.484;10.024;2023-06-26T00:24:28;9.90;;;5.57;;
8500;SDS011;4288;48.484;10.024;2023-06-26T00:26:55;10.20;;;6.40;;
8500;SDS011;4288;48.484;10.024;2023-06-26T00:29:24;11.23;;;6.10;;
8500;SDS011;4288;48.484;10.024;2023-06-26T00:31:51;8.13;;;6.20;;
8500;SDS011;4288;48.484;10.024;2023-06-26T00:34:18;11.90;;;6.67;;
8500;SDS011;4288;48.484;10.024;2023-06-26T00:36:46;8.70;;;5.30;;
8500;SDS011;4288;48.484;10.024;2023-06-26T00:39:13;8.97;;;5.37;;
8500;SDS011;4288;48.484;10.024;2023-06-26T00:41:42;9.57;;;6.80;;
8500;SDS011;4288;48.484;10.024;2023-06-26T00:44:09;9.47;;;5.40;;
8500;SDS011;4288;48.484;10.024;2023-06-26T00:46:37;12.63;;;7.10;;
8500;SDS011;4288;48.484;10.024;2023-06-26T00:49:04;9.37;;;5.30;;
8500;SDS011;4288;48.484;10.024;2023-06-26T00:51:32;9.87;;;5.77;;
8500;SDS011;4288;48.484;10.024;2023-06-26T00:54:00;10.00;;;6.60;;
8500;SDS011;4288;48.484;10.024;2023-06-26T00:56:27;11.87;;;7.10;;
8500;SDS011;4288;48.484;10.024;2023-06-26T00:58:57;12.30;;;5.37;;
8500;SDS011;4288;48.484;10.024;2023-06-26T01:01:25;10.37;;;6.30;;
8500;SDS011;4288;48.484;10.024;2023-06-26T01:03:52;13.23;;;7.30;;
8500;SDS011;4288;48.484;10.024;2023-06-26T01:06:22;9.30;;;6.33;;
8500;SDS011;4288;48.484;10.024;2023-06-26T01:08:52;9.60;;;6.17;;
8500;SDS011;4288;48.484;10.024;2023-06-26T01:11:19;8.33;;;5.83;;
8500;SDS011;4288;48.484;10.024;2023-06-26T01:13:47;15.23;;;6.10;;
8500;SDS011;4288;48.484;10.024;2023-06-26T01:16:16;9.93;;;6.60;;
8500;SDS011;4288;48.484;10.024;2023-06-26T01:18:45;13.83;;;6.70;;
8500;SDS011;4288;48.484;10.024;2023-06-26T01:21:14;9.87;;;6.70;;
8500;SDS011;4288;48.484;10.024;2023-06-26T01:23:45;20.83;;;6.67;;
8500;SDS011;4288;48.484;10.024;2023-06-26T01:26:26;12.20;;;7.00;;
8500;SDS011;4288;48.484;10.024;2023-06-26T01:28:57;9.00;;;6.43;;
8500;SDS011;4288;48.484;10.024;2023-06-26T01:31:27;8.67;;;5.60;;
8500;SDS011;4288;48.484;10.024;2023-06-26T01:33:56;8.93;;;6.17;;
8500;SDS011;4288;48.484;10.024;2023-06-26T01:36:25;9.20;;;5.53;;
8500;SDS011;4288;48.484;10.024;2023-06-26T01:38:53;9.10;;;6.00;;
8500;SDS011;4288;48.484;10.024;2023-06-26T01:41:20;10.40;;;6.20;;
8500;SDS011;4288;48.484;10.024;2023-06-26T01:43:56;14.70;;;6.53;;
8500;SDS011;4288;48.484;10.024;2023-06-26T01:46:32;13.00;;;7.67;;
8500;SDS011;4288;48.484;10.024;2023-06-26T01:49:06;13.57;;;6.20;;
8500;SDS011;4288;48.484;10.024;2023-06-26T01:51:39;8.67;;;6.37;;
8500;SDS011;4288;48.484;10.024;2023-06-26T01:54:13;11.70;;;6.57;;
8500;SDS011;4288;48.484;10.024;2023-06-26T01:56:44;11.83;;;6.83;;
8500;SDS011;4288;48.484;10.024;2023-06-26T01:59:16;10.10;;;6.53;;
8500;SDS011;4288;48.484;10.024;2023-06-26T02:01:45;9.83;;;6.33;;
8500;SDS011;4288;48.484;10.024;2023-06-26T02:04:13;16.00;;;6.87;;
8500;SDS011;4288;48.484;10.024;2023-06-26T02:06:41;8.83;;;6.00;;
8500;SDS011;4288;48.484;10.024;2023-06-26T02:09:08;13.93;;;7.33;;
8500;SDS011;4288;48.484;10.024;2023-06-26T02:11:35;12.37;;;7.67;;
8500;SDS011;4288;48.484;10.024;2023-06-26T02:14:03;9.80;;;6.23;;
8500;SDS011;4288;48.484;10.024;2023-06-26T02:16:31;7.97;;;6.30;;
8500;SDS011;4288;48.484;10.024;2023-06-26T02:18:59;12.10;;;6.57;;
8500;SDS011;4288;48.484;10.024;2023-06-26T02:21:26;13.13;;;6.40;;
8500;SDS011;4288;48.484;10.024;2023-06-26T02:23:53;11.47;;;6.83;;
8500;SDS011;4288;48.484;10.024;2023-06-26T02:26:21;9.00;;;6.10;;
8500;SDS011;4288;48.484;10.024;2023-06-26T02:28:48;9.97;;;6.20;;
8500;SDS011;4288;48.484;10.024;2023-06-26T02:31:15;12.93;;;6.10;;
8500;SDS011;4288;48.484;10.024;2023-06-26T02:33:44;7.20;;;5.70;;
8500;SDS011;4288;48.484;10.024;2023-06-26T02:36:11;6.80;;;5.50;;
8500;SDS011;4288;48.484;10.024;2023-06-26T02:38:39;9.77;;;6.87;;
8500;SDS011;4288;48.484;10.024;2023-06-26T02:41:06;7.87;;;5.60;;
8500;SDS011;4288;48.484;10.024;2023-06-26T02:43:34;8.73;;;6.43;;
8500;SDS011;4288;48.484;10.024;2023-06-26T02:46:01;16.37;;;6.87;;
8500;SDS011;4288;48.484;10.024;2023-06-26T02:48:28;12.40;;;7.37;;
8500;SDS011;4288;48.484;10.024;2023-06-26T02:50:58;10.53;;;5.90;;
8500;SDS011;4288;48.484;10.024;2023-06-26T02:53:26;11.60;;;6.97;;
8500;SDS011;4288;48.484;10.024;2023-06-26T02:55:53;10.47;;;6.27;;
8500;SDS011;4288;48.484;10.024;2023-06-26T02:58:20;12.50;;;6.50;;
8500;SDS011;4288;48.484;10.024;2023-06-26T03:00:48;11.50;;;7.20;;
8500;SDS011;4288;48.484;10.024;2023-06-26T03:03:15;8.23;;;6.00;;
8500;SDS011;4288;48.484;10.024;2023-06-26T03:05:43;10.00;;;5.70;;
8500;SDS011;4288;48.484;10.024;2023-06-26T03:08:11;10.33;;;6.20;;
8500;SDS011;4288;48.484;10.024;2023-06-26T03:10:39;8.13;;;5.70;;
8500;SDS011;4288;48.484;10.024;2023-06-26T03:13:06;28.07;;;6.67;;
8500;SDS011;4288;48.484;10.024;2023-06-26T03:15:34;8.57;;;6.20;;
8500;SDS011;4288;48.484;10.024;2023-06-26T03:18:01;11.07;;;7.17;;
8500;SDS011;4288;48.484;10.024;2023-06-26T03:20:28;13.00;;;6.80;;
8500;SDS011;4288;48.484;10.024;2023-06-26T03:22:56;14.43;;;6.37;;
8500;SDS011;4288;48.484;10.024;2023-06-26T03:25:25;9.37;;;6.10;;
8500;SDS011;4288;48.484;10.024;2023-06-26T03:27:53;10.37;;;5.77;;
8500;SDS011;4288;48.484;10.024;2023-06-26T03:30:20;8.77;;;6.50;;
8500;SDS011;4288;48.484;10.024;2023-06-26T03:32:47;12.67;;;5.57;;
8500;SDS011;4288;48.484;10.024;2023-06-26T03:35:15;7.27;;;5.53;;
8500;SDS011;4288;48.484;10.024;2023-06-26T03:37:43;9.97;;;6.23;;
8500;SDS011;4288;48.484;10.024;2023-06-26T03:40:10;10.83;;;5.50;;
8500;SDS011;4288;48.484;10.024;2023-06-26T03:42:39;17.50;;;6.37;;
8500;SDS011;4288;48.484;10.024;2023-06-26T03:45:07;10.83;;;6.60;;
8500;SDS011;4288;48.484;10.024;2023-06-26T03:47:35;9.30;;;6.17;;
8500;SDS011;4288;48.484;10.024;2023-06-26T03:50:02;10.33;;;6.70;;
8500;SDS011;4288;48.484;10.024;2023-06-26T03:52:30;11.17;;;7.10;;
8500;SDS011;4288;48.484;10.024;2023-06-26T03:54:57;12.23;;;6.70;;
8500;SDS011;4288;48.484;10.024;2023-06-26T03:57:26;9.70;;;7.47;;
8500;SDS011;4288;48.484;10.024;2023-06-26T03:59:55;8.97;;;5.53;;
8500;SDS011;4288;48.484;10.024;2023-06-26T04:02:22;7.93;;;6.10;;
8500;SDS011;4288;48.484;10.024;2023-06-26T04:04:49;34.57;;;7.53;;
8500;SDS011;4288;48.484;10.024;2023-06-26T04:07:18;8.23;;;6.17;;
8500;SDS011;4288;48.484;10.024;2023-06-26T04:09:45;8.10;;;6.10;;
8500;SDS011;4288;48.484;10.024;2023-06-26T04:12:12;10.93;;;6.67;;
8500;SDS011;4288;48.484;10.024;2023-06-26T04:14:40;8.77;;;6.10;;
8500;SDS011;4288;48.484;10.024;2023-06-26T04:17:09;10.03;;;6.00;;
8500;SDS011;4288;48.484;10.024;2023-06-26T04:19:37;12.30;;;6.60;;
8500;SDS011;4288;48.484;10.024;2023-06-26T04:22:04;15.97;;;6.17;;
8500;SDS011;4288;48.484;10.024;2023-06-26T04:24:31;8.13;;;5.53;;
8500;SDS011;4288;48.484;10.024;2023-06-26T04:26:59;12.30;;;7.37;;
8500;SDS011;4288;48.484;10.024;2023-06-26T04:29:26;10.37;;;6.27;;
8500;SDS011;4288;48.484;10.024;2023-06-26T04:31:54;8.80;;;5.77;;
8500;SDS011;4288;48.484;10.024;2023-06-26T04:34:24;12.20;;;5.60;;
8500;SDS011;4288;48.484;10.024;2023-06-26T04:36:51;15.70;;;7.37;;
8500;SDS011;4288;48.484;10.024;2023-06-26T04:39:19;7.77;;;5.10;;
8500;SDS011;4288;48.484;10.024;2023-06-26T04:41:46;9.13;;;5.87;;
8500;SDS011;4288;48.484;10.024;2023-06-26T04:44:14;17.10;;;6.50;;
8500;SDS011;4288;48.484;10.024;2023-06-26T04:46:41;16.90;;;6.10;;
8500;SDS011;4288;48.484;10.024;2023-06-26T04:49:09;10.20;;;6.87;;
8500;SDS011;4288;48.484;10.024;2023-06-26T04:51:38;8.00;;;5.70;;
8500;SDS011;4288;48.484;10.024;2023-06-26T04:54:06;9.73;;;5.90;;
8500;SDS011;4288;48.484;10.024;2023-06-26T04:56:34;10.53;;;6.20;;
8500;SDS011;4288;48.484;10.024;2023-06-26T04:59:01;7.80;;;6.23;;
8500;SDS011;4288;48.484;10.024;2023-06-26T05:01:29;7.83;;;5.93;;
8500;SDS011;4288;48.484;10.024;2023-06-26T05:03:57;9.40;;;6.57;;
8500;SDS011;4288;48.484;10.024;2023-06-26T05:06:24;8.30;;;5.70;;
8500;SDS011;4288;48.484;10.024;2023-06-26T05:08:53;10.07;;;5.90;;
8500;SDS011;4288;48.484;10.024;2023-06-26T05:11:20;10.33;;;6.60;;
8500;SDS011;4288;48.484;10.024;2023-06-26T05:13:48;12.30;;;7.17;;
8500;SDS011;4288;48.484;10.024;2023-06-26T05:16:15;9.63;;;6.33;;
8500;SDS011;4288;48.484;10.024;2023-06-26T05:18:43;9.17;;;6.30;;
8500;SDS011;4288;48.484;10.024;2023-06-26T05:21:10;10.60;;;7.10;;
8500;SDS011;4288;48.484;10.024;2023-06-26T05:23:38;9.70;;;6.43;;
8500;SDS011;4288;48.484;10.024;2023-06-26T05:26:07;10.67;;;6.67;;
8500;SDS011;4288;48.484;10.024;2023-06-26T05:28:36;10.70;;;6.13;;
8500;SDS011;4288;48.484;10.024;2023-06-26T05:31:04;12.77;;;7.37;;
8500;SDS011;4288;48.484;10.024;2023-06-26T05:33:31;10.93;;;6.97;;
8500;SDS011;4288;48.484;10.024;2023-06-26T05:36:03;12.00;;;7.50;;
8500;SDS011;4288;48.484;10.024;2023-06-26T05:38:32;16.07;;;8.40;;
8500;SDS011;4288;48.484;10.024;2023-06-26T05:41:00;11.87;;;6.90;;
8500;SDS011;4288;48.484;10.024;2023-06-26T05:43:29;9.37;;;6.97;;
8500;SDS011;4288;48.484;10.024;2023-06-26T05:45:56;13.93;;;7.63;;
8500;SDS011;4288;48.484;10.024;2023-06-26T05:48:23;12.37;;;6.87;;
8500;SDS011;4288;48.484;10.024;2023-06-26T05:50:51;14.33;;;7.93;;
8500;SDS011;4288;48.484;10.024;2023-06-26T05:53:19;10.33;;;7.50;;
8500;SDS011;4288;48.484;10.024;2023-06-26T05:55:47;9.97;;;7.27;;
8500;SDS011;4288;48.484;10.024;2023-06-26T05:58:15;15.33;;;8.33;;
8500;SDS011;4288;48.484;10.024;2023-06-26T06:00:45;11.40;;;7.20;;
8500;SDS011;4288;48.484;10.024;2023-06-26T06:03:12;15.80;;;8.03;;
8500;SDS011;4288;48.484;10.024;2023-06-26T06:05:40;12.50;;;7.03;;
8500;SDS011;4288;48.484;10.024;2023-06-26T06:08:07;11.07;;;6.43;;
8500;SDS011;4288;48.484;10.024;2023-06-26T06:10:34;12.87;;;7.70;;
8500;SDS011;4288;48.484;10.024;2023-06-26T06:13:02;11.50;;;8.20;;
8500;SDS011;4288;48.484;10.024;2023-06-26T06:15:29;12.00;;;8.00;;
8500;SDS011;4288;48.484;10.024;2023-06-26T06:17:58;12.20;;;7.77;;
8500;SDS011;4288;48.484;10.024;2023-06-26T06:20:25;13.57;;;8.30;;
8500;SDS011;4288;48.484;10.024;2023-06-26T06:22:53;12.73;;;8.60;;
8500;SDS011;4288;48.484;10.024;2023-06-26T06:25:20;10.07;;;7.43;;
8500;SDS011;4288;48.484;10.024;2023-06-26T06:27:47;9.63;;;6.80;;
8500;SDS011;4288;48.484;10.024;2023-06-26T06:30:15;13.97;;;7.30;;
8500;SDS011;4288;48.484;10.024;2023-06-26T06:32:42;10.83;;;7.00;;
8500;SDS011;4288;48.484;10.024;2023-06-26T06:35:12;9.57;;;6.70;;
8500;SDS011;4288;48.484;10.024;2023-06-26T06:37:39;12.10;;;6.90;;
8500;SDS011;4288;48.484;10.024;2023-06-26T06:40:08;13.20;;;7.50;;
8500;SDS011;4288;48.484;10.024;2023-06-26T06:42:36;9.30;;;6.07;;
8500;SDS011;4288;48.484;10.024;2023-06-26T06:45:04;9.93;;;6.93;;
8500;SDS011;4288;48.484;10.024;2023-06-26T06:47:33;12.43;;;6.93;;
8500;SDS011;4288;48.484;10.024;2023-06-26T06:50:00;10.67;;;6.27;;
8500;SDS011;4288;48.484;10.024;2023-06-26T06:52:35;9.03;;;5.50;;
8500;SDS011;4288;48.484;10.024;2023-06-26T06:55:04;12.33;;;7.10;;
8500;SDS011;4288;48.484;10.024;2023-06-26T06:57:33;9.00;;;5.80;;
8500;SDS011;4288;48.484;10.024;2023-06-26T07:00:03;8.27;;;5.83;;
8500;SDS011;4288;48.484;10.024;2023-06-26T07:02:33;10.53;;;6.53;;
8500;SDS011;4288;48.484;10.024;2023-06-26T07:05:01;9.90;;;5.80;;
8500;SDS011;4288;48.484;10.024;2023-06-26T07:07:29;7.00;;;5.90;;
8500;SDS011;4288;48.484;10.024;2023-06-26T07:09:59;11.83;;;5.97;;
8500;SDS011;4288;48.484;10.024;2023-06-26T07:12:28;7.13;;;5.63;;
8500;SDS011;4288;48.484;10.024;2023-06-26T07:14:55;11.23;;;7.63;;
8500;SDS011;4288;48.484;10.024;2023-06-26T07:17:23;8.30;;;6.17;;
8500;SDS011;4288;48.484;10.024;2023-06-26T07:19:50;12.50;;;5.83;;
8500;SDS011;4288;48.484;10.024;2023-06-26T07:22:18;7.83;;;5.67;;
8500;SDS011;4288;48.484;10.024;2023-06-26T07:24:47;13.77;;;5.50;;
8500;SDS011;4288;48.484;10.024;2023-06-26T07:27:16;9.60;;;6.20;;
8500;SDS011;4288;48.484;10.024;2023-06-26T07:29:44;11.20;;;5.90;;
8500;SDS011;4288;48.484;10.024;2023-06-26T07:32:11;8.40;;;6.03;;
8500;SDS011;4288;48.484;10.024;2023-06-26T07:34:39;9.40;;;5.97;;
8500;SDS011;4288;48.484;10.024;2023-06-26T07:37:07;10.30;;;6.40;;
8500;SDS011;4288;48.484;10.024;2023-06-26T07:39:34;13.73;;;7.03;;
8500;SDS011;4288;48.484;10.024;2023-06-26T07:42:01;12.23;;;5.60;;
8500;SDS011;4288;48.484;10.024;2023-06-26T07:44:30;6.37;;;5.13;;
8500;SDS011;4288;48.484;10.024;2023-06-26T07:46:58;16.30;;;6.90;;
8500;SDS011;4288;48.484;10.024;2023-06-26T07:49:25;12.03;;;6.33;;
8500;SDS011;4288;48.484;10.024;2023-06-26T07:51:53;8.77;;;6.00;;
8500;SDS011;4288;48.484;10.024;2023-06-26T07:54:20;10.60;;;6.23;;
8500;SDS011;4288;48.484;10.024;2023-06-26T07:56:54;18.33;;;5.70;;
8500;SDS011;4288;48.484;10.024;2023-06-26T07:59:23;7.97;;;5.77;;
8500;SDS011;4288;48.484;10.024;2023-06-26T08:01:53;7.10;;;5.73;;
8500;SDS011;4288;48.484;10.024;2023-06-26T08:04:22;7.73;;;5.77;;
8500;SDS011;4288;48.484;10.024;2023-06-26T08:06:51;7.87;;;5.90;;
8500;SDS011;4288;48.484;10.024;2023-06-26T08:09:20;9.60;;;6.50;;
8500;SDS011;4288;48.484;10.024;2023-06-26T08:11:48;7.90;;;6.23;;
8500;SDS011;4288;48.484;10.024;2023-06-26T08:14:16;7.80;;;6.17;;
8500;SDS011;4288;48.484;10.024;2023-06-26T08:16:44;6.10;;;5.37;;
8500;SDS011;4288;48.484;10.024;2023-06-26T08:19:13;9.17;;;6.23;;
8500;SDS011;4288;48.484;10.024;2023-06-26T08:21:42;7.70;;;5.83;;
8500;SDS011;4288;48.484;10.024;2023-06-26T08:24:10;10.90;;;5.40;;
8500;SDS011;4288;48.484;10.024;2023-06-26T08:26:38;9.20;;;5.67;;
8500;SDS011;4288;48.484;10.024;2023-06-26T08:29:06;7.60;;;6.10;;
8500;SDS011;4288;48.484;10.024;2023-06-26T08:31:33;8.00;;;6.00;;
8500;SDS011;4288;48.484;10.024;2023-06-26T08:34:01;8.20;;;6.37;;
8500;SDS011;4288;48.484;10.024;2023-06-26T08:36:30;9.20;;;5.43;;
8500;SDS011;4288;48.484;10.024;2023-06-26T08:38:58;9.27;;;5.90;;
8500;SDS011;4288;48.484;10.024;2023-06-26T08:41:25;7.63;;;5.37;;
8500;SDS011;4288;48.484;10.024;2023-06-26T08:43:53;9.07;;;5.97;;
8500;SDS011;4288;48.484;10.024;2023-06-26T08:46:20;5.83;;;4.83;;
8500;SDS011;4288;48.484;10.024;2023-06-26T08:48:48;8.47;;;5.33;;
8500;SDS011;4288;48.484;10.024;2023-06-26T08:51:23;7.67;;;5.37;;
8500;SDS011;4288;48.484;10.024;2023-06-26T08:53:56;7.97;;;3.93;;
8500;SDS011;4288;48.484;10.024;2023-06-26T08:56:25;5.50;;;4.27;;
8500;SDS011;4288;48.484;10.024;2023-06-26T08:58:57;10.27;;;4.30;;
8500;SDS011;4288;48.484;10.024;2023-06-26T09:01:25;4.17;;;3.77;;
8500;SDS011;4288;48.484;10.024;2023-06-26T09:03:53;4.90;;;4.40;;
8500;SDS011;4288;48.484;10.024;2023-06-26T09:06:20;5.00;;;3.97;;
8500;SDS011;4288;48.484;10.024;2023-06-26T09:08:48;5.47;;;3.87;;
8500;SDS011;4288;48.484;10.024;2023-06-26T09:11:17;5.23;;;3.70;;
8500;SDS011;4288;48.484;10.024;2023-06-26T09:13:44;7.70;;;4.20;;
8500;SDS011;4288;48.484;10.024;2023-06-26T09:16:12;6.30;;;4.70;;
8500;SDS011;4288;48.484;10.024;2023-06-26T09:18:40;6.63;;;3.60;;
8500;SDS011;4288;48.484;10.024;2023-06-26T09:21:08;11.23;;;3.60;;
8500;SDS011;4288;48.484;10.024;2023-06-26T09:23:36;6.20;;;3.93;;
8500;SDS011;4288;48.484;10.024;2023-06-26T09:26:05;6.47;;;3.80;;
8500;SDS011;4288;48.484;10.024;2023-06-26T09:28:34;7.53;;;4.17;;
8500;SDS011;4288;48.484;10.024;2023-06-26T09:31:02;7.77;;;4.57;;
8500;SDS011;4288;48.484;10.024;2023-06-26T09:33:33;5.40;;;3.90;;
8500;SDS011;4288;48.484;10.024;2023-06-26T09:36:03;7.30;;;4.20;;
8500;SDS011;4288;48.484;10.024;2023-06-26T09:38:32;6.50;;;4.07;;
8500;SDS011;4288;48.484;10.024;2023-06-26T09:41:00;4.97;;;3.53;;
8500;SDS011;4288;48.484;10.024;2023-06-26T09:43:28;4.77;;;3.30;;
8500;SDS011;4288;48.484;10.024;2023-06-26T09:45:57;6.00;;;3.83;;
8500;SDS011;4288;48.484;10.024;2023-06-26T09:48:27;10.73;;;4.30;;
8500;SDS011;4288;48.484;10.024;2023-06-26T09:50:55;4.67;;;3.63;;
8500;SDS011;4288;48.484;10.024;2023-06-26T09:53:22;3.80;;;3.13;;
8500;SDS011;4288;48.484;10.024;2023-06-26T09:55:51;5.23;;;4.10;;
8500;SDS011;4288;48.484;10.024;2023-06-26T09:58:18;4.53;;;3.90;;
8500;SDS011;4288;48.484;10.024;2023-06-26T10:00:47;3.90;;;3.50;;
8500;SDS011;4288;48.484;10.024;2023-06-26T10:03:17;4.80;;;3.60;;
8500;SDS011;4288;48.484;10.024;2023-06-26T10:05:45;6.30;;;4.37;;
8500;SDS011;4288;48.484;10.024;2023-06-26T10:08:14;4.80;;;3.93;;
8500;SDS011;4288;48.484;10.024;2023-06-26T10:10:43;3.67;;;3.33;;
8500;SDS011;4288;48.484;10.024;2023-06-26T10:13:15;5.37;;;4.13;;
8500;SDS011;4288;48.484;10.024;2023-06-26T10:15:47;5.10;;;3.40;;
8500;SDS011;4288;48.484;10.024;2023-06-26T10:18:18;5.40;;;3.70;;
8500;SDS011;4288;48.484;10.024;2023-06-26T10:20:50;5.70;;;4.73;;
8500;SDS011;4288;48.484;10.024;2023-06-26T10:23:21;5.80;;;4.33;;
8500;SDS011;4288;48.484;10.024;2023-06-26T10:25:52;5.67;;;3.80;;
8500;SDS011;4288;48.484;10.024;2023-06-26T10:28:21;6.70;;;4.27;;
8500;SDS011;4288;48.484;10.024;2023-06-26T10:30:50;6.83;;;4.50;;
8500;SDS011;4288;48.484;10.024;2023-06-26T10:33:20;9.30;;;4.60;;
8500;SDS011;4288;48.484;10.024;2023-06-26T10:35:49;5.13;;;3.80;;
8500;SDS011;4288;48.484;10.024;2023-06-26T10:38:17;4.07;;;3.67;;
8500;SDS011;4288;48.484;10.024;2023-06-26T10:40:46;5.00;;;3.97;;
8500;SDS011;4288;48.484;10.024;2023-06-26T10:43:17;7.80;;;4.90;;
8500;SDS011;4288;48.484;10.024;2023-06-26T10:45:45;9.50;;;4.00;;
8500;SDS011;4288;48.484;10.024;2023-06-26T10:48:17;5.83;;;4.97;;
8500;SDS011;4288;48.484;10.024;2023-06-26T10:50:48;5.63;;;3.97;;
8500;SDS011;4288;48.484;10.024;2023-06-26T10:53:16;5.07;;;4.57;;
8500;SDS011;4288;48.484;10.024;2023-06-26T10:55:54;4.50;;;3.73;;
8500;SDS011;4288;48.484;10.024;2023-06-26T10:58:29;6.77;;;4.40;;
8500;SDS011;4288;48.484;10.024;2023-06-26T11:03:41;6.20;;;4.70;;
8500;SDS011;4288;48.484;10.024;2023-06-26T11:06:13;4.97;;;4.03;;
8500;SDS011;4288;48.484;10.024;2023-06-26T11:08:44;4.67;;;4.27;;
8500;SDS011;4288;48.484;10.024;2023-06-26T11:11:13;8.20;;;4.83;;
8500;SDS011;4288;48.484;10.024;2023-06-26T11:13:40;6.83;;;5.20;;
8500;SDS011;4288;48.484;10.024;2023-06-26T11:16:08;5.47;;;4.47;;
8500;SDS011;4288;48.484;10.024;2023-06-26T11:18:37;8.00;;;5.30;;
8500;SDS011;4288;48.484;10.024;2023-06-26T11:21:05;6.10;;;4.70;;
8500;SDS011;4288;48.484;10.024;2023-06-26T11:23:35;6.17;;;4.37;;
8500;SDS011;4288;48.484;10.024;2023-06-26T11:28:49;6.43;;;4.53;;
8500;SDS011;4288;48.484;10.024;2023-06-26T11:31:23;5.73;;;4.47;;
8500;SDS011;4288;48.484;10.024;2023-06-26T11:33:52;4.60;;;3.93;;
8500;SDS011;4288;48.484;10.024;2023-06-26T11:36:22;7.67;;;4.13;;
8500;SDS011;4288;48.484;10.024;2023-06-26T11:38:55;6.50;;;4.97;;
8500;SDS011;4288;48.484;10.024;2023-06-26T11:41:23;7.63;;;5.40;;
8500;SDS011;4288;48.484;10.024;2023-06-26T11:43:52;7.90;;;4.87;;
8500;SDS011;4288;48.484;10.024;2023-06-26T11:46:21;5.70;;;4.50;;
8500;SDS011;4288;48.484;10.024;2023-06-26T11:48:49;5.17;;;4.60;;
8500;SDS011;4288;48.484;10.024;2023-06-26T11:51:17;8.57;;;4.40;;
8500;SDS011;4288;48.484;10.024;2023-06-26T11:53:45;6.83;;;4.97;;
8500;SDS011;4288;48.484;10.024;2023-06-26T11:56:15;6.30;;;4.80;;
8500;SDS011;4288;48.484;10.024;2023-06-26T11:58:56;5.10;;;4.40;;
8500;SDS011;4288;48.484;10.024;2023-06-26T12:01:26;7.93;;;5.30;;
8500;SDS011;4288;48.484;10.024;2023-06-26T12:03:58;5.50;;;4.10;;
8500;SDS011;4288;48.484;10.024;2023-06-26T12:06:28;6.40;;;4.90;;
8500;SDS011;4288;48.484;10.024;2023-06-26T12:08:57;6.60;;;5.10;;
8500;SDS011;4288;48.484;10.024;2023-06-26T12:11:27;6.03;;;4.80;;
8500;SDS011;4288;48.484;10.024;2023-06-26T12:13:55;6.30;;;5.33;;
8500;SDS011;4288;48.484;10.024;2023-06-26T12:16:23;6.10;;;5.07;;
8500;SDS011;4288;48.484;10.024;2023-06-26T12:18:51;6.80;;;5.50;;
8500;SDS011;4288;48.484;10.024;2023-06-26T12:21:33;7.90;;;5.00;;
8500;SDS011;4288;48.484;10.024;2023-06-26T12:24:19;7.50;;;5.30;;
8500;SDS011;4288;48.484;10.024;2023-06-26T12:26:51;6.43;;;5.60;;
8500;SDS011;4288;48.484;10.024;2023-06-26T12:29:21;5.43;;;4.77;;
8500;SDS011;4288;48.484;10.024;2023-06-26T12:31:58;9.27;;;4.87;;
8500;SDS011;4288;48.484;10.024;2023-06-26T12:34:27;6.83;;;5.00;;
8500;SDS011;4288;48.484;10.024;2023-06-26T12:36:59;8.33;;;5.40;;
8500;SDS011;4288;48.484;10.024;2023-06-26T12:39:28;6.20;;;5.20;;
8500;SDS011;4288;48.484;10.024;2023-06-26T12:42:13;11.23;;;5.67;;
8500;SDS011;4288;48.484;10.024;2023-06-26T12:44:41;10.40;;;5.43;;
8500;SDS011;4288;48.484;10.024;2023-06-26T12:47:09;7.57;;;5.87;;
8500;SDS011;4288;48.484;10.024;2023-06-26T12:49:39;11.53;;;5.70;;
8500;SDS011;4288;48.484;10.024;2023-06-26T12:52:08;11.10;;;5.63;;
8500;SDS011;4288;48.484;10.024;2023-06-26T12:54:36;6.10;;;4.70;;
8500;SDS011;4288;48.484;10.024;2023-06-26T12:57:05;17.03;;;5.97;;
8500;SDS011;4288;48.484;10.024;2023-06-26T12:59:35;8.00;;;4.67;;
8500;SDS011;4288;48.484;10.024;2023-06-26T13:02:03;6.13;;;4.50;;
8500;SDS011;4288;48.484;10.024;2023-06-26T13:04:32;10.70;;;5.63;;
8500;SDS011;4288;48.484;10.024;2023-06-26T13:07:00;10.07;;;6.23;;
8500;SDS011;4288;48.484;10.024;2023-06-26T13:09:31;14.80;;;5.43;;
8500;SDS011;4288;48.484;10.024;2023-06-26T13:12:00;6.03;;;4.43;;
8500;SDS011;4288;48.484;10.024;2023-06-26T13:14:28;7.70;;;5.40;;
8500;SDS011;4288;48.484;10.024;2023-06-26T13:16:57;6.83;;;5.40;;
8500;SDS011;4288;48.484;10.024;2023-06-26T13:19:27;8.50;;;5.53;;
8500;SDS011;4288;48.484;10.024;2023-06-26T13:21:54;8.07;;;5.97;;
8500;SDS011;4288;48.484;10.024;2023-06-26T13:24:21;9.70;;;5.80;;
8500;SDS011;4288;48.484;10.024;2023-06-26T13:26:49;6.47;;;5.00;;
8500;SDS011;4288;48.484;10.024;2023-06-26T13:29:16;10.83;;;5.70;;
8500;SDS011;4288;48.484;10.024;2023-06-26T13:31:44;7.30;;;5.20;;
8500;SDS011;4288;48.484;10.024;2023-06-26T13:34:20;18.60;;;5.97;;
8500;SDS011;4288;48.484;10.024;2023-06-26T13:36:48;7.00;;;5.77;;
8500;SDS011;4288;48.484;10.024;2023-06-26T13:39:16;13.33;;;6.30;;
8500;SDS011;4288;48.484;10.024;2023-06-26T13:41:43;7.30;;;5.40;;
8500;SDS011;4288;48.484;10.024;2023-06-26T13:44:11;8.83;;;5.90;;
8500;SDS011;4288;48.484;10.024;2023-06-26T13:46:38;9.20;;;5.97;;
8500;SDS011;4288;48.484;10.024;2023-06-26T13:49:05;9.97;;;6.33;;
8500;SDS011;4288;48.484;10.024;2023-06-26T13:51:34;7.37;;;6.27;;
8500;SDS011;4288;48.484;10.024;2023-06-26T13:54:03;12.27;;;6.13;;
8500;SDS011;4288;48.484;10.024;2023-06-26T13:56:30;13.90;;;5.83;;
8500;SDS011;4288;48.484;10.024;2023-06-26T13:58:58;8.20;;;6.30;;
8500;SDS011;4288;48.484;10.024;2023-06-26T14:01:25;9.70;;;6.90;;
8500;SDS011;4288;48.484;10.024;2023-06-26T14:03:53;7.77;;;5.60;;
8500;SDS011;4288;48.484;10.024;2023-06-26T14:06:20;9.13;;;6.30;;
8500;SDS011;4288;48.484;10.024;2023-06-26T14:08:49;6.07;;;5.13;;
8500;SDS011;4288;48.484;10.024;2023-06-26T14:11:16;11.03;;;6.77;;
8500;SDS011;4288;48.484;10.024;2023-06-26T14:13:44;11.17;;;6.07;;
8500;SDS011;4288;48.484;10.024;2023-06-26T14:16:11;7.93;;;5.50;;
8500;SDS011;4288;48.484;10.024;2023-06-26T14:18:40;10.20;;;6.27;;
8500;SDS011;4288;48.484;10.024;2023-06-26T14:21:07;8.30;;;5.00;;
8500;SDS011;4288;48.484;10.024;2023-06-26T14:23:34;8.00;;;5.43;;
8500;SDS011;4288;48.484;10.024;2023-06-26T14:26:03;13.30;;;6.20;;
8500;SDS011;4288;48.484;10.024;2023-06-26T14:28:31;5.90;;;5.07;;
8500;SDS011;4288;48.484;10.024;2023-06-26T14:30:58;6.53;;;5.53;;
8500;SDS011;4288;48.484;10.024;2023-06-26T14:33:25;8.40;;;5.70;;
8500;SDS011;4288;48.484;10.024;2023-06-26T14:35:53;9.60;;;5.67;;
8500;SDS011;4288;48.484;10.024;2023-06-26T14:38:20;7.60;;;5.43;;
8500;SDS011;4288;48.484;10.024;2023-06-26T14:40:47;12.37;;;6.23;;
8500;SDS011;4288;48.484;10.024;2023-06-26T14:43:16;14.73;;;6.07;;
8500;SDS011;4288;48.484;10.024;2023-06-26T14:45:44;7.90;;;6.40;;
8500;SDS011;4288;48.484;10.024;2023-06-26T14:48:12;7.00;;;5.80;;
8500;SDS011;4288;48.484;10.024;2023-06-26T14:50:40;11.93;;;5.47;;
8500;SDS011;4288;48.484;10.024;2023-06-26T14:53:07;8.90;;;5.43;;
8500;SDS011;4288;48.484;10.024;2023-06-26T14:55:34;9.00;;;6.10;;
8500;SDS011;4288;48.484;10.024;2023-06-26T14:58:02;14.20;;;5.30;;
8500;SDS011;4288;48.484;10.024;2023-06-26T15:00:30;10.43;;;5.93;;
8500;SDS011;4288;48.484;10.024;2023-06-26T15:02:58;6.07;;;5.17;;
8500;SDS011;4288;48.484;10.024;2023-06-26T15:05:25;6.13;;;5.53;;
8500;SDS011;4288;48.484;10.024;2023-06-26T15:07:52;7.20;;;5.03;;
8500;SDS011;4288;48.484;10.024;2023-06-26T15:10:20;10.00;;;5.60;;